Wetterdaten: Woche 24.08.20 - 30.08.20 (KW35)
Datum Zeit Temp. Aussen Temp. o. S. Temp +5cm Feuchte Auss Luftdruck Regen Sonnenschein Regendauer Solar Windben Empfang
24.08.2020 00:00 16,7 C 15,9 C 15,8 C 90 % 1017,1 hPa 0,0 l/m 0,00 h 0,00 h 0 W/m 1,8 km/h (1 Bft) 97,23 %
24.08.2020 01:00 16,9 C 16,1 C 16,1 C 90 % 1017,0 hPa 0,0 l/m 0,00 h 0,00 h 0 W/m 6,3 km/h (2 Bft) 97,93 %
24.08.2020 02:00 16,9 C 16,1 C 15,8 C 89 % 1016,6 hPa 0,0 l/m 0,00 h 0,00 h 0 W/m 6,0 km/h (2 Bft) 98,36 %
24.08.2020 03:00 16,7 C 15,9 C 15,6 C 87 % 1016,3 hPa 0,0 l/m 0,00 h 0,00 h 0 W/m 7,3 km/h (2 Bft) 96,19 %
24.08.2020 04:00 16,4 C 15,4 C 15,3 C 84 % 1016,0 hPa 0,0 l/m 0,00 h 0,00 h 0 W/m 11,3 km/h (2 Bft) 97,49 %
24.08.2020 05:00 15,7 C 14,5 C 14,5 C 85 % 1015,7 hPa 0,0 l/m 0,00 h 0,00 h 0 W/m 7,9 km/h (2 Bft) 99,59 %
24.08.2020 06:00 15,2 C 14,4 C 14,1 C 87 % 1015,6 hPa 0,0 l/m 0,00 h 0,00 h 9 W/m 7,8 km/h (2 Bft) 96,77 %
24.08.2020 07:00 15,4 C 14,9 C 14,7 C 87 % 1015,6 hPa 0,0 l/m 0,00 h 0,00 h 28 W/m 9,2 km/h (2 Bft) 96,08 %
24.08.2020 08:00 15,8 C 15,7 C 15,1 C 88 % 1015,7 hPa 0,0 l/m 0,10 h 0,00 h 98 W/m 8,3 km/h (2 Bft) 99,64 %
24.08.2020 09:00 16,9 C 18,0 C 17,1 C 85 % 1015,8 hPa 0,0 l/m 0,57 h 0,00 h 225 W/m 13,3 km/h (3 Bft) 97,12 %
24.08.2020 10:00 17,7 C 18,8 C 17,7 C 82 % 1016,1 hPa 0,0 l/m 0,40 h 0,00 h 264 W/m 11,8 km/h (2 Bft) 95,15 %
24.08.2020 11:00 17,7 C 17,4 C 16,9 C 81 % 1016,4 hPa 0,0 l/m 0,00 h 0,00 h 141 W/m 11,9 km/h (2 Bft) 99,56 %
24.08.2020 12:00 18,4 C 20,4 C 18,7 C 79 % 1016,3 hPa 0,0 l/m 0,33 h 0,00 h 399 W/m 15,3 km/h (3 Bft) 96,81 %
24.08.2020 13:00 20,7 C 22,3 C 20,3 C 68 % 1015,9 hPa 0,0 l/m 0,43 h 0,00 h 438 W/m 17,3 km/h (3 Bft) 96,20 %
24.08.2020 14:00 20,6 C 21,3 C 20,1 C 67 % 1015,8 hPa 0,0 l/m 0,10 h 0,00 h 257 W/m 9,8 km/h (2 Bft) 97,86 %
24.08.2020 15:00 20,5 C 20,8 C 19,7 C 66 % 1015,8 hPa 0,0 l/m 0,00 h 0,00 h 206 W/m 10,8 km/h (2 Bft) 98,08 %
24.08.2020 16:00 21,1 C 22,4 C 20,4 C 63 % 1015,5 hPa 0,0 l/m 0,33 h 0,00 h 312 W/m 12,7 km/h (3 Bft) 97,79 %
24.08.2020 17:00 22,3 C 23,8 C 20,8 C 58 % 1015,2 hPa 0,0 l/m 0,70 h 0,00 h 378 W/m 13,3 km/h (3 Bft) 96,02 %
24.08.2020 18:00 22,1 C 21,4 C 20,1 C 59 % 1015,0 hPa 0,0 l/m 0,37 h 0,00 h 171 W/m 9,4 km/h (2 Bft) 99,19 %
24.08.2020 19:00 20,4 C 17,4 C 17,4 C 71 % 1015,1 hPa 2,4 l/m 0,20 h 0,40 h 33 W/m 7,0 km/h (2 Bft) 97,38 %
24.08.2020 20:00 17,5 C 14,9 C 15,0 C 89 % 1015,3 hPa 0,0 l/m 0,00 h 0,00 h 9 W/m 1,2 km/h (1 Bft) 96,09 %
24.08.2020 21:00 16,2 C 14,4 C 14,0 C 92 % 1015,7 hPa 0,0 l/m 0,00 h 0,00 h 0 W/m 1,2 km/h (1 Bft) 99,46 %
24.08.2020 22:00 15,8 C 14,3 C 13,8 C 94 % 1015,7 hPa 0,0 l/m 0,00 h 0,00 h 0 W/m 1,1 km/h (0 Bft) 97,02 %
24.08.2020 23:00 15,2 C 12,9 C 12,8 C 94 % 1015,7 hPa 0,0 l/m 0,00 h 0,00 h 0 W/m 0,0 km/h (0 Bft) 95,64 %
25.08.2020 00:00 14,2 C 12,2 C 12,0 C 93 % 1015,8 hPa 0,0 l/m 0,00 h 0,00 h 0 W/m 0,0 km/h (0 Bft) 97,48 %
25.08.2020 01:00 14,0 C 13,0 C 12,9 C 95 % 1015,6 hPa 0,0 l/m 0,00 h 0,00 h 0 W/m 0,0 km/h (0 Bft) 97,72 %
25.08.2020 02:00 14,3 C 13,5 C 13,2 C 97 % 1015,2 hPa 0,0 l/m 0,00 h 0,00 h 0 W/m 0,0 km/h (0 Bft) 97,12 %
25.08.2020 03:00 14,7 C 13,8 C 13,5 C 97 % 1014,9 hPa 0,0 l/m 0,00 h 0,00 h 0 W/m 0,0 km/h (0 Bft) 97,06 %
25.08.2020 04:00 14,8 C 13,9 C 13,3 C 98 % 1014,4 hPa 0,0 l/m 0,00 h 0,00 h 0 W/m 0,1 km/h (0 Bft) 97,94 %
25.08.2020 05:00 14,6 C 13,5 C 12,9 C 98 % 1013,9 hPa 0,0 l/m 0,00 h 0,00 h 0 W/m 0,2 km/h (0 Bft) 98,85 %
25.08.2020 06:00 14,2 C 13,0 C 12,7 C 98 % 1013,6 hPa 0,0 l/m 0,03 h 0,00 h 10 W/m 0,1 km/h (0 Bft) 95,72 %
25.08.2020 07:00 14,1 C 13,7 C 13,0 C 98 % 1013,5 hPa 0,0 l/m 0,03 h 0,00 h 47 W/m 2,1 km/h (1 Bft) 97,61 %
25.08.2020 08:00 14,8 C 15,1 C 14,0 C 99 % 1013,3 hPa 0,0 l/m 0,00 h 0,00 h 87 W/m 4,3 km/h (1 Bft) 98,88 %
25.08.2020 09:00 15,5 C 16,9 C 14,9 C 99 % 1013,0 hPa 0,0 l/m 0,10 h 0,00 h 161 W/m 6,0 km/h (2 Bft) 97,22 %
25.08.2020 10:00 17,3 C 19,9 C 16,9 C 93 % 1012,4 hPa 0,0 l/m 0,53 h 0,00 h 307 W/m 16,1 km/h (3 Bft) 96,51 %
25.08.2020 11:00 18,8 C 19,5 C 17,3 C 83 % 1011,5 hPa 0,0 l/m 0,00 h 0,00 h 231 W/m 18,0 km/h (3 Bft) 99,21 %
25.08.2020 12:00 20,0 C 22,2 C 19,4 C 78 % 1010,6 hPa 0,0 l/m 0,40 h 0,10 h 387 W/m 19,7 km/h (3 Bft) 95,04 %
25.08.2020 13:00 21,5 C 21,0 C 19,5 C 71 % 1010,0 hPa 0,0 l/m 0,00 h 0,30 h 204 W/m 17,8 km/h (3 Bft) 97,86 %
25.08.2020 14:00 20,2 C 17,3 C 17,0 C 79 % 1009,5 hPa 0,6 l/m 0,00 h 0,53 h 122 W/m 13,4 km/h (3 Bft) 99,43 %
25.08.2020 15:00 19,4 C 18,1 C 17,2 C 85 % 1007,8 hPa 0,0 l/m 0,00 h 0,03 h 209 W/m 19,6 km/h (3 Bft) 95,66 %
25.08.2020 16:00 20,1 C 19,1 C 17,9 C 79 % 1006,3 hPa 0,0 l/m 0,00 h 0,17 h 135 W/m 21,2 km/h (4 Bft) 97,51 %
25.08.2020 17:00 20,4 C 19,6 C 17,6 C 78 % 1005,7 hPa 0,2 l/m 0,00 h 0,27 h 92 W/m 19,8 km/h (4 Bft) 98,86 %
25.08.2020 18:00 20,4 C 19,2 C 18,2 C 77 % 1005,9 hPa 0,0 l/m 0,00 h 0,63 h 52 W/m 17,3 km/h (3 Bft) 96,55 %
25.08.2020 19:00 20,5 C 19,7 C 18,4 C 77 % 1004,3 hPa 0,0 l/m 0,13 h 0,00 h 50 W/m 12,8 km/h (3 Bft) 97,43 %
25.08.2020 20:00 19,8 C 18,2 C 17,6 C 80 % 1003,3 hPa 0,0 l/m 0,00 h 0,00 h 10 W/m 14,9 km/h (3 Bft) 97,58 %
25.08.2020 21:00 19,1 C 18,0 C 17,2 C 82 % 1002,8 hPa 0,0 l/m 0,00 h 0,00 h 0 W/m 15,7 km/h (3 Bft) 97,62 %
25.08.2020 22:00 19,1 C 18,2 C 17,5 C 82 % 1002,8 hPa 0,0 l/m 0,00 h 0,30 h 0 W/m 12,3 km/h (3 Bft) 98,08 %
25.08.2020 23:00 19,3 C 17,7 C 17,2 C 88 % 1003,5 hPa 0,0 l/m 0,00 h 0,10 h 0 W/m 11,8 km/h (2 Bft) 96,37 %
26.08.2020 00:00 18,7 C 17,7 C 17,2 C 85 % 1003,4 hPa 0,0 l/m 0,00 h 0,00 h 0 W/m 18,9 km/h (3 Bft) 97,39 %
26.08.2020 01:00 18,3 C 17,2 C 16,7 C 85 % 1003,5 hPa 0,0 l/m 0,00 h 0,00 h 0 W/m 20,9 km/h (4 Bft) 98,72 %
26.08.2020 02:00 18,2 C 17,4 C 16,8 C 81 % 1003,2 hPa 0,0 l/m 0,00 h 0,00 h 0 W/m 28,9 km/h (5 Bft) 96,22 %
26.08.2020 03:00 18,6 C 17,7 C 17,2 C 76 % 1003,0 hPa 0,0 l/m 0,00 h 0,00 h 0 W/m 29,5 km/h (5 Bft) 97,65 %
26.08.2020 04:00 18,5 C 17,7 C 17,1 C 76 % 1003,0 hPa 0,0 l/m 0,00 h 0,00 h 0 W/m 30,0 km/h (5 Bft) 98,23 %
26.08.2020 05:00 18,3 C 17,2 C 16,8 C 76 % 1003,3 hPa 0,0 l/m 0,00 h 0,00 h 0 W/m 29,7 km/h (5 Bft) 97,93 %
26.08.2020 06:00 18,0 C 17,0 C 16,7 C 76 % 1003,3 hPa 0,0 l/m 0,00 h 0,00 h 6 W/m 29,6 km/h (5 Bft) 95,26 %
26.08.2020 07:00 17,7 C 16,7 C 16,4 C 78 % 1003,9 hPa 0,0 l/m 0,00 h 0,13 h 16 W/m 29,2 km/h (5 Bft) 97,72 %
26.08.2020 08:00 17,4 C 16,7 C 16,2 C 80 % 1004,9 hPa 0,0 l/m 0,00 h 0,00 h 72 W/m 32,2 km/h (5 Bft) 99,49 %
26.08.2020 09:00 17,3 C 17,3 C 16,7 C 82 % 1005,8 hPa 0,0 l/m 0,07 h 0,00 h 138 W/m 29,3 km/h (5 Bft) 94,87 %
26.08.2020 10:00 18,1 C 18,6 C 17,6 C 81 % 1006,6 hPa 0,0 l/m 0,40 h 0,00 h 248 W/m 33,4 km/h (5 Bft) 97,67 %
26.08.2020 11:00 18,8 C 19,3 C 18,2 C 78 % 1007,4 hPa 0,0 l/m 0,13 h 0,00 h 260 W/m 30,0 km/h (5 Bft) 99,29 %
26.08.2020 12:00 19,9 C 22,5 C 19,4 C 77 % 1008,6 hPa 0,0 l/m 0,60 h 0,00 h 439 W/m 27,7 km/h (4 Bft) 95,58 %
26.08.2020 13:00 19,5 C 19,1 C 18,4 C 74 % 1009,6 hPa 0,0 l/m 0,03 h 0,07 h 166 W/m 26,5 km/h (4 Bft) 97,72 %
26.08.2020 14:00 19,1 C 18,9 C 18,2 C 73 % 1010,8 hPa 0,0 l/m 0,00 h 0,00 h 162 W/m 25,0 km/h (4 Bft) 99,22 %
26.08.2020 15:00 18,8 C 18,5 C 17,9 C 73 % 1011,9 hPa 0,0 l/m 0,00 h 0,00 h 150 W/m 25,8 km/h (4 Bft) 96,44 %
26.08.2020 16:00 18,7 C 18,3 C 17,8 C 74 % 1012,8 hPa 0,0 l/m 0,00 h 0,00 h 121 W/m 23,8 km/h (4 Bft) 97,03 %
26.08.2020 17:00 19,1 C 18,7 C 18,0 C 73 % 1013,4 hPa 0,0 l/m 0,00 h 0,00 h 113 W/m 24,2 km/h (4 Bft) 97,65 %
26.08.2020 18:00 18,5 C 17,1 C 17,0 C 77 % 1014,5 hPa 0,0 l/m 0,00 h 0,17 h 38 W/m 21,3 km/h (4 Bft) 97,95 %
26.08.2020 19:00 16,9 C 15,0 C 15,3 C 87 % 1015,5 hPa 0,2 l/m 0,00 h 0,30 h 20 W/m 13,5 km/h (3 Bft) 96,94 %
26.08.2020 20:00 16,1 C 14,5 C 15,0 C 92 % 1016,3 hPa 0,0 l/m 0,00 h 0,00 h 7 W/m 11,7 km/h (2 Bft) 96,79 %
26.08.2020 21:00 16,2 C 15,3 C 15,0 C 91 % 1017,0 hPa 0,0 l/m 0,00 h 0,00 h 0 W/m 6,0 km/h (2 Bft) 99,53 %
26.08.2020 22:00 16,2 C 15,1 C 15,0 C 91 % 1017,5 hPa 0,0 l/m 0,00 h 0,00 h 0 W/m 5,8 km/h (2 Bft) 95,88 %
26.08.2020 23:00 15,8 C 14,3 C 14,0 C 91 % 1017,9 hPa 0,0 l/m 0,00 h 0,00 h 0 W/m 1,5 km/h (1 Bft) 97,08 %
27.08.2020 00:00 15,2 C 13,8 C 13,7 C 93 % 1018,2 hPa 0,0 l/m 0,00 h 0,00 h 0 W/m 1,7 km/h (1 Bft) 95,95 %
27.08.2020 01:00 14,6 C 13,1 C 12,8 C 93 % 1018,2 hPa 0,0 l/m 0,00 h 0,00 h 0 W/m 0,5 km/h (0 Bft) 97,51 %
27.08.2020 02:00 13,9 C 12,2 C 11,8 C 93 % 1018,2 hPa 0,0 l/m 0,00 h 0,00 h 0 W/m 0,1 km/h (0 Bft) 95,88 %
27.08.2020 03:00 13,5 C 12,7 C 12,2 C 94 % 1018,2 hPa 0,0 l/m 0,00 h 0,00 h 0 W/m 0,0 km/h (0 Bft) 97,51 %
27.08.2020 04:00 13,6 C 12,6 C 12,2 C 95 % 1018,0 hPa 0,0 l/m 0,00 h 0,00 h 0 W/m 0,0 km/h (0 Bft) 98,93 %
27.08.2020 05:00 13,6 C 12,8 C 12,4 C 96 % 1017,7 hPa 0,0 l/m 0,00 h 0,00 h 0 W/m 0,0 km/h (0 Bft) 97,94 %
27.08.2020 06:00 13,7 C 12,5 C 12,2 C 97 % 1017,5 hPa 0,0 l/m 0,00 h 0,00 h 5 W/m 0,0 km/h (0 Bft) 95,25 %
27.08.2020 07:00 13,7 C 13,3 C 12,6 C 97 % 1017,7 hPa 0,0 l/m 0,00 h 0,00 h 30 W/m 0,0 km/h (0 Bft) 98,72 %
27.08.2020 08:00 14,4 C 15,5 C 14,6 C 98 % 1017,7 hPa 0,0 l/m 0,13 h 0,00 h 106 W/m 2,1 km/h (1 Bft) 97,15 %
27.08.2020 09:00 15,6 C 16,7 C 15,6 C 97 % 1017,6 hPa 0,0 l/m 0,00 h 0,00 h 132 W/m 7,3 km/h (2 Bft) 97,30 %
27.08.2020 10:00 16,5 C 16,8 C 16,0 C 90 % 1017,6 hPa 0,0 l/m 0,00 h 0,00 h 144 W/m 10,1 km/h (2 Bft) 97,08 %
27.08.2020 11:00 16,7 C 17,1 C 16,0 C 89 % 1017,2 hPa 0,0 l/m 0,00 h 0,00 h 141 W/m 6,5 km/h (2 Bft) 99,15 %
27.08.2020 12:00 17,7 C 19,4 C 17,8 C 86 % 1016,8 hPa 0,0 l/m 0,07 h 0,00 h 258 W/m 9,4 km/h (2 Bft) 95,17 %
27.08.2020 13:00 20,3 C 26,5 C 19,7 C 77 % 1016,1 hPa 0,0 l/m 0,87 h 0,00 h 781 W/m 14,6 km/h (3 Bft) 98,21 %
27.08.2020 14:00 21,5 C 24,4 C 20,3 C 70 % 1015,3 hPa 0,0 l/m 0,53 h 0,00 h 473 W/m 14,1 km/h (3 Bft) 99,64 %
27.08.2020 15:00 22,6 C 26,7 C 21,2 C 64 % 1014,5 hPa 0,0 l/m 0,90 h 0,00 h 664 W/m 14,9 km/h (3 Bft) 94,93 %
27.08.2020 16:00 23,0 C 25,2 C 21,5 C 59 % 1013,5 hPa 0,0 l/m 0,73 h 0,00 h 442 W/m 16,1 km/h (3 Bft) 98,14 %
27.08.2020 17:00 22,7 C 22,9 C 21,1 C 59 % 1012,3 hPa 0,0 l/m 0,30 h 0,00 h 224 W/m 12,7 km/h (3 Bft) 98,22 %
27.08.2020 18:00 22,1 C 21,8 C 20,4 C 60 % 1011,2 hPa 0,0 l/m 0,17 h 0,00 h 123 W/m 6,8 km/h (2 Bft) 96,84 %
27.08.2020 19:00 21,5 C 19,4 C 18,3 C 66 % 1010,2 hPa 0,0 l/m 0,00 h 0,00 h 33 W/m 0,4 km/h (0 Bft) 97,66 %
27.08.2020 20:00 20,0 C 17,9 C 17,1 C 69 % 1009,1 hPa 0,0 l/m 0,00 h 0,00 h 7 W/m 0,7 km/h (0 Bft) 97,66 %
27.08.2020 21:00 18,9 C 17,2 C 16,7 C 72 % 1008,3 hPa 0,0 l/m 0,00 h 0,00 h 0 W/m 0,6 km/h (0 Bft) 97,70 %
27.08.2020 22:00 18,3 C 15,7 C 15,8 C 77 % 1008,2 hPa 0,2 l/m 0,00 h 0,52 h 0 W/m 1,6 km/h (1 Bft) 96,82 %
27.08.2020 23:00 17,5 C 14,4 C 14,4 C 86 % 1007,3 hPa 0,4 l/m 0,00 h 0,57 h 0 W/m 0,8 km/h (0 Bft) 97,28 %
28.08.2020 00:00 16,7 C 14,4 C 14,5 C 90 % 1005,9 hPa 0,0 l/m 0,00 h 0,17 h 0 W/m 0,8 km/h (0 Bft) 94,88 %
28.08.2020 01:00 16,5 C 15,0 C 14,6 C 91 % 1004,8 hPa 0,2 l/m 0,00 h 0,03 h 0 W/m 15,1 km/h (3 Bft) 98,65 %
28.08.2020 02:00 16,5 C 15,0 C 14,4 C 91 % 1004,2 hPa 0,0 l/m 0,00 h 0,00 h 0 W/m 15,7 km/h (3 Bft) 94,02 %
28.08.2020 03:00 16,3 C 15,0 C 14,4 C 92 % 1003,7 hPa 0,0 l/m 0,00 h 0,00 h 0 W/m 8,3 km/h (2 Bft) 98,79 %
28.08.2020 04:00 16,2 C 15,4 C 14,7 C 93 % 1003,4 hPa 0,0 l/m 0,00 h 0,00 h 0 W/m 7,4 km/h (2 Bft) 99,13 %
28.08.2020 05:00 16,5 C 16,1 C 15,5 C 91 % 1003,4 hPa 0,0 l/m 0,00 h 0,00 h 0 W/m 19,2 km/h (3 Bft) 95,24 %
28.08.2020 06:00 16,8 C 16,1 C 15,6 C 86 % 1003,5 hPa 0,0 l/m 0,00 h 0,00 h 0 W/m 15,9 km/h (3 Bft) 97,67 %
28.08.2020 07:00 16,9 C 16,1 C 15,6 C 86 % 1003,4 hPa 0,0 l/m 0,00 h 0,00 h 8 W/m 17,3 km/h (3 Bft) 98,65 %
28.08.2020 08:00 17,0 C 16,2 C 15,7 C 85 % 1003,3 hPa 0,0 l/m 0,00 h 0,00 h 40 W/m 17,3 km/h (3 Bft) 96,47 %
28.08.2020 09:00 17,8 C 19,6 C 18,5 C 81 % 1003,2 hPa 0,0 l/m 0,60 h 0,00 h 292 W/m 22,3 km/h (4 Bft) 98,01 %
28.08.2020 10:00 19,0 C 20,4 C 19,7 C 74 % 1003,0 hPa 0,0 l/m 0,40 h 0,00 h 289 W/m 23,6 km/h (4 Bft) 97,61 %
28.08.2020 11:00 20,3 C 23,6 C 20,0 C 67 % 1003,0 hPa 0,0 l/m 1,00 h 0,00 h 648 W/m 25,8 km/h (4 Bft) 98,62 %
28.08.2020 12:00 20,6 C 22,5 C 19,8 C 67 % 1002,8 hPa 0,0 l/m 1,00 h 0,00 h 497 W/m 23,2 km/h (4 Bft) 95,65 %
28.08.2020 13:00 20,6 C 22,3 C 20,0 C 66 % 1002,5 hPa 0,0 l/m 0,67 h 0,00 h 421 W/m 23,8 km/h (4 Bft) 98,57 %
28.08.2020 14:00 21,4 C 23,8 C 21,4 C 63 % 1001,9 hPa 0,0 l/m 0,83 h 0,00 h 545 W/m 22,8 km/h (4 Bft) 99,79 %
28.08.2020 15:00 22,0 C 24,5 C 21,3 C 61 % 1001,3 hPa 0,0 l/m 0,83 h 0,00 h 529 W/m 21,8 km/h (4 Bft) 94,85 %
28.08.2020 16:00 23,2 C 26,3 C 22,2 C 58 % 1000,7 hPa 0,0 l/m 1,00 h 0,00 h 635 W/m 23,1 km/h (4 Bft) 98,49 %
28.08.2020 17:00 23,1 C 23,4 C 21,6 C 58 % 1000,3 hPa 0,0 l/m 0,50 h 0,00 h 319 W/m 21,8 km/h (4 Bft) 98,93 %
28.08.2020 18:00 22,1 C 21,4 C 20,4 C 59 % 999,9 hPa 0,0 l/m 0,17 h 0,00 h 107 W/m 20,1 km/h (4 Bft) 95,88 %
28.08.2020 19:00 20,4 C 17,9 C 18,0 C 67 % 1000,2 hPa 0,0 l/m 0,00 h 0,17 h 14 W/m 13,5 km/h (3 Bft) 97,75 %
28.08.2020 20:00 17,3 C 15,6 C 15,7 C 80 % 1000,7 hPa 0,0 l/m 0,00 h 0,00 h 7 W/m 1,3 km/h (1 Bft) 98,06 %
28.08.2020 21:00 16,4 C 14,9 C 15,0 C 80 % 1001,1 hPa 0,0 l/m 0,00 h 0,00 h 0 W/m 2,3 km/h (1 Bft) 97,80 %
28.08.2020 22:00 15,7 C 14,1 C 14,1 C 81 % 1001,3 hPa 0,0 l/m 0,00 h 0,00 h 0 W/m 2,0 km/h (1 Bft) 97,07 %
28.08.2020 23:00 15,0 C 13,9 C 13,8 C 85 % 1001,6 hPa 0,0 l/m 0,00 h 0,00 h 0 W/m 6,5 km/h (2 Bft) 96,08 %
29.08.2020 00:00 14,5 C 13,1 C 13,1 C 86 % 1001,6 hPa 0,0 l/m 0,00 h 0,00 h 0 W/m 1,4 km/h (1 Bft) 97,47 %
29.08.2020 01:00 14,0 C 12,7 C 12,7 C 87 % 1002,0 hPa 0,0 l/m 0,00 h 0,00 h 0 W/m 2,5 km/h (1 Bft) 99,21 %
29.08.2020 02:00 13,4 C 12,2 C 12,2 C 89 % 1002,0 hPa 0,0 l/m 0,00 h 0,00 h 0 W/m 2,1 km/h (1 Bft) 95,43 %
29.08.2020 03:00 13,1 C 12,2 C 12,2 C 91 % 1002,1 hPa 0,0 l/m 0,00 h 0,00 h 0 W/m 1,9 km/h (1 Bft) 97,22 %
29.08.2020 04:00 12,9 C 12,0 C 11,9 C 91 % 1002,1 hPa 0,0 l/m 0,00 h 0,00 h 0 W/m 1,3 km/h (1 Bft) 97,60 %
29.08.2020 05:00 12,8 C 12,1 C 12,1 C 92 % 1002,3 hPa 0,0 l/m 0,00 h 0,00 h 0 W/m 1,3 km/h (1 Bft) 97,64 %
29.08.2020 06:00 12,9 C 12,2 C 12,1 C 92 % 1002,4 hPa 0,0 l/m 0,00 h 0,00 h 5 W/m 1,3 km/h (1 Bft) 97,09 %
29.08.2020 07:00 12,9 C 12,4 C 12,3 C 92 % 1002,8 hPa 0,0 l/m 0,00 h 0,00 h 16 W/m 0,6 km/h (0 Bft) 96,85 %
29.08.2020 08:00 13,6 C 14,1 C 13,5 C 91 % 1003,1 hPa 0,0 l/m 0,00 h 0,00 h 72 W/m 10,9 km/h (2 Bft) 97,95 %
29.08.2020 09:00 15,4 C 18,0 C 16,6 C 87 % 1003,5 hPa 0,0 l/m 0,67 h 0,00 h 295 W/m 18,1 km/h (3 Bft) 98,88 %
29.08.2020 10:00 17,9 C 19,7 C 19,5 C 78 % 1004,1 hPa 0,0 l/m 0,50 h 0,00 h 326 W/m 16,4 km/h (3 Bft) 96,67 %
29.08.2020 11:00 18,2 C 20,5 C 18,0 C 77 % 1004,4 hPa 0,0 l/m 0,43 h 0,00 h 354 W/m 14,3 km/h (3 Bft) 96,33 %
29.08.2020 12:00 20,3 C 23,4 C 19,4 C 69 % 1004,4 hPa 0,0 l/m 0,57 h 0,00 h 480 W/m 14,9 km/h (3 Bft) 99,10 %
29.08.2020 13:00 20,3 C 22,7 C 19,4 C 66 % 1004,5 hPa 0,0 l/m 0,57 h 0,00 h 570 W/m 17,6 km/h (3 Bft) 96,73 %
29.08.2020 14:00 21,7 C 24,2 C 21,0 C 60 % 1004,7 hPa 0,0 l/m 0,63 h 0,00 h 630 W/m 18,2 km/h (3 Bft) 99,65 %
29.08.2020 15:00 21,6 C 24,2 C 20,6 C 60 % 1004,8 hPa 0,0 l/m 0,67 h 0,00 h 574 W/m 18,4 km/h (3 Bft) 96,18 %
29.08.2020 16:00 22,6 C 25,6 C 21,4 C 55 % 1004,7 hPa 0,0 l/m 0,90 h 0,00 h 605 W/m 16,4 km/h (3 Bft) 97,16 %
29.08.2020 17:00 22,9 C 24,8 C 21,0 C 56 % 1004,9 hPa 0,0 l/m 0,83 h 0,00 h 459 W/m 9,8 km/h (2 Bft) 99,73 %
29.08.2020 18:00 22,1 C 21,3 C 19,6 C 60 % 1005,1 hPa 0,0 l/m 0,40 h 0,00 h 180 W/m 4,7 km/h (1 Bft) 95,63 %
29.08.2020 19:00 20,1 C 18,6 C 18,1 C 67 % 1005,5 hPa 0,0 l/m 0,07 h 0,00 h 57 W/m 1,4 km/h (1 Bft) 97,17 %
29.08.2020 20:00 18,5 C 16,3 C 16,1 C 71 % 1005,9 hPa 0,0 l/m 0,00 h 0,00 h 12 W/m 0,0 km/h (0 Bft) 99,78 %
29.08.2020 21:00 16,8 C 14,3 C 13,7 C 75 % 1006,5 hPa 0,0 l/m 0,00 h 0,00 h 0 W/m 0,0 km/h (0 Bft) 96,00 %
29.08.2020 22:00 15,3 C 12,9 C 12,4 C 80 % 1007,0 hPa 0,0 l/m 0,00 h 0,00 h 0 W/m 0,0 km/h (0 Bft) 97,07 %
29.08.2020 23:00 14,1 C 12,2 C 11,6 C 84 % 1007,2 hPa 0,0 l/m 0,00 h 0,00 h 0 W/m 0,0 km/h (0 Bft) 96,31 %
30.08.2020 00:00 13,2 C 11,3 C 10,8 C 86 % 1007,4 hPa 0,0 l/m 0,00 h 0,00 h 0 W/m 0,0 km/h (0 Bft) 97,55 %
30.08.2020 01:00 12,5 C 10,9 C 10,6 C 88 % 1007,5 hPa 0,0 l/m 0,00 h 0,00 h 0 W/m 0,0 km/h (0 Bft) 97,51 %
30.08.2020 02:00 12,0 C 10,3 C 10,1 C 90 % 1008,0 hPa 0,0 l/m 0,00 h 0,00 h 0 W/m 0,0 km/h (0 Bft) 99,22 %
30.08.2020 03:00 11,4 C 9,8 C 9,6 C 91 % 1008,0 hPa 0,0 l/m 0,00 h 0,00 h 0 W/m 0,0 km/h (0 Bft) 97,22 %
30.08.2020 04:00 11,1 C 9,8 C 9,7 C 93 % 1008,3 hPa 0,0 l/m 0,00 h 0,00 h 0 W/m 0,0 km/h (0 Bft) 96,27 %
30.08.2020 05:00 10,8 C 9,5 C 9,3 C 94 % 1008,2 hPa 0,0 l/m 0,00 h 0,00 h 0 W/m 0,0 km/h (0 Bft) 97,64 %
30.08.2020 06:00 10,8 C 9,9 C 9,9 C 95 % 1008,5 hPa 0,0 l/m 0,00 h 0,00 h 0 W/m 0,3 km/h (0 Bft) 98,89 %
30.08.2020 07:00 11,8 C 11,4 C 11,4 C 97 % 1008,7 hPa 0,0 l/m 0,00 h 0,00 h 11 W/m 0,8 km/h (0 Bft) 96,22 %
30.08.2020 08:00 12,5 C 12,2 C 12,1 C 98 % 1009,3 hPa 0,0 l/m 0,00 h 0,00 h 41 W/m 2,4 km/h (1 Bft) 97,64 %
30.08.2020 09:00 13,1 C 13,8 C 13,3 C 98 % 1009,5 hPa 0,0 l/m 0,00 h 0,00 h 124 W/m 4,6 km/h (1 Bft) 97,94 %
30.08.2020 10:00 14,3 C 17,9 C 15,8 C 98 % 1009,2 hPa 0,0 l/m 0,33 h 0,00 h 285 W/m 7,3 km/h (2 Bft) 96,42 %
30.08.2020 11:00 17,7 C 23,1 C 17,7 C 85 % 1009,8 hPa 0,0 l/m 0,77 h 0,00 h 569 W/m 9,2 km/h (2 Bft) 97,52 %
30.08.2020 12:00 19,3 C 22,2 C 18,4 C 78 % 1009,9 hPa 0,0 l/m 0,37 h 0,00 h 346 W/m 7,3 km/h (2 Bft) 98,16 %
30.08.2020 13:00 20,8 C 24,3 C 19,3 C 75 % 1009,9 hPa 0,0 l/m 0,57 h 0,00 h 502 W/m 6,6 km/h (2 Bft) 99,37 %
30.08.2020 14:00 21,6 C 24,9 C 19,7 C 72 % 1009,9 hPa 0,0 l/m 0,43 h 0,00 h 457 W/m 5,5 km/h (1 Bft) 95,34 %
30.08.2020 15:00 22,7 C 26,3 C 20,3 C 69 % 1009,6 hPa 0,0 l/m 0,70 h 0,00 h 555 W/m 6,8 km/h (2 Bft) 98,09 %
30.08.2020 16:00 21,5 C 20,3 C 19,1 C 71 % 1009,6 hPa 0,0 l/m 0,00 h 0,00 h 108 W/m 5,2 km/h (1 Bft) 99,58 %
30.08.2020 17:00 20,2 C 19,5 C 18,6 C 78 % 1009,9 hPa 0,0 l/m 0,00 h 0,00 h 123 W/m 7,9 km/h (2 Bft) 95,40 %
30.08.2020 18:00 19,5 C 18,4 C 18,0 C 81 % 1010,3 hPa 0,0 l/m 0,00 h 0,00 h 58 W/m 5,3 km/h (1 Bft) 97,56 %
30.08.2020 19:00 18,7 C 16,7 C 16,7 C 86 % 1010,6 hPa 0,0 l/m 0,00 h 0,30 h 26 W/m 3,0 km/h (1 Bft) 98,64 %
30.08.2020 20:00 17,8 C 15,4 C 15,5 C 91 % 1011,5 hPa 0,0 l/m 0,00 h 0,00 h 10 W/m 0,3 km/h (0 Bft) 97,17 %
30.08.2020 21:00 16,9 C 15,0 C 15,3 C 93 % 1012,3 hPa 0,0 l/m 0,00 h 0,00 h 0 W/m 2,8 km/h (1 Bft) 96,29 %
30.08.2020 22:00 16,5 C 15,0 C 15,4 C 94 % 1013,2 hPa 2,2 l/m 0,00 h 0,40 h 0 W/m 3,8 km/h (1 Bft) 98,58 %
30.08.2020 23:00 16,4 C 14,7 C 14,8 C 96 % 1013,9 hPa 7,4 l/m 0,00 h 1,00 h 0 W/m 2,5 km/h (1 Bft) 97,76 %
Min-Datum _ 30.08.20 30.08.20 30.08.20 29.08.20 28.08.20 - - - - 24.08.20 27.08.20
_ Min-Zeit 05:30 05:18 05:24 16:54 19:08 - - - - 00:04 00:02
Minimum _ 10,7 C 8,9 C 8,9 C 52 % 999,6 hPa - - - - 0,0 km/h (0 Bft) 12,50 %
Max-Datum _ 28.08.20 30.08.20 28.08.20 25.08.20 27.08.20 30.08.20 27.08.20 25.08.20 24.08.20 26.08.20 24.08.20
_ Max-Zeit 17:12 15:26 10:06 07:36 02:20 23:08 17:02 18:08 13:04 10:26 00:02
Maximum _ 23,6 C 30,0 C 24,4 C 99 % 1018,3 hPa 7,4 l/m 0,07 h 0,07 h 1050 W/m 61,2 km/h
O (7 Bft)
100,00 %
Durchschnitt _ 17,5 C 17,3 C 16,2 C 82 % 1009,4 hPa #13,8 l/m #26:06 h #6:41 h 221 W/m 10,4 km/h (2 Bft) 97,44 %
© 2020 W. Hausmann